• Join FlightAware (Why Join?)
  • Login
  • US Flag 
06:41PM EDT


 

Airport Tracker/Info


-or-


 

Live Flight TrackerFlight Track Log ✈ AAL1520 ✈ 08-May-2013 ✈ KMIA - KDCA

Flight Track Log - Related Links

Times and Time Zones

All times are in EDT time to prevent confusion due to time zone crossing. See the AAL1520 flight status page for this flight to view local times or setup timezone preferences in your user account.

Time Position Orientation Groundspeed Altitude Reporting Facility
EDT Latitude Longitude Course Direction KTS MPH feet Rate Location/Type
07:48PM 25.8030 -80.2650 90° East 173 199 500  Level FlightAware
07:48PM 25.8060 -80.2390 83° East 183 211 1,600 1,740 Climbing FlightAware
07:49PM 25.8080 -80.2130 85° East 211 243 2,100 1,260 Climbing FlightAware
07:49PM 25.8150 -80.1780 77° East 243 280 2,800 1,380 Climbing FlightAware
07:50PM 25.8320 -80.1440 61° Northeast 272 313 3,500 2,160 Climbing FlightAware
07:50PM 25.8460 -80.1130 63° Northeast 267 307 4,800 2,700 Climbing FlightAware
07:51PM 25.8640 -80.0770 61° Northeast 273 314 6,000 2,160 Climbing FlightAware
07:51PM 25.8820 -80.0440 59° Northeast 292 336 6,800 2,040 Climbing FlightAware
07:51PM 25.9020 -80.0070 59° Northeast 298 343 7,900 2,460 Climbing FlightAware
07:52PM 25.9230 -79.9650 61° Northeast 303 349 9,300 2,700 Climbing FlightAware
07:52PM 25.9300 -79.9520 59° Northeast 306 352 9,700 1,620 Climbing FlightAware
07:53PM 25.9650 -79.8850 60° Northeast 349 402 10,800 1,920 Climbing FlightAware
07:54PM 25.9970 -79.8230 60° Northeast 362 417 12,500 2,580 Climbing FlightAware
07:54PM 26.0310 -79.7570 60° Northeast 373 429 14,300 2,700 Climbing FlightAware
07:55PM 26.0590 -79.7090 57° Northeast 379 436 15,700 2,520 Climbing FlightAware
07:55PM 26.0790 -79.6930 36° Northeast 375 432 16,200 2,400 Climbing FlightAware
07:56PM 26.1450 -79.6570 26° Northeast 384 442 17,900 2,220 Climbing FlightAware
07:56PM 26.2070 -79.6190 29° Northeast 403 464 19,200 1,500 Climbing FlightAware
07:57PM 26.2970 -79.5660 28° Northeast 413 475 20,300 660 Climbing FlightAware
07:58PM 26.3540 -79.5330 27° Northeast 413 475 20,300  Level FlightAware
07:59PM 26.4270 -79.4920 27° Northeast 413 475 20,300  Level FlightAware
07:59PM 26.4850 -79.4590 27° Northeast 413 475 20,300 3,720 Level FlightAware
08:01PM 26.6900 -79.3500 25° Northeast 453 521 28,100 4,320 Climbing FlightAware
08:01PM 26.7560 -79.3130 27° Northeast 451 519 29,000 1,320 Climbing FlightAware
08:02PM 26.8260 -79.2750 26° Northeast 466 536 29,800 1,200 Climbing FlightAware
08:03PM 26.9350 -79.2150 26° Northeast 481 554 30,800 1,080 Climbing FlightAware
08:04PM 27.0150 -79.1700 27° Northeast 489 563 31,500 960 Climbing FlightAware
08:09PM 27.6740 -78.9880 14° North 490 564 36,400 840 Climbing FlightAware
08:09PM 27.7510 -78.9780 North 490 564 36,400 180 Level FlightAware
08:11PM 28.0560 -78.9280 North 484 557 37,000 120 Climbing FlightAware
08:14PM 28.3670 -78.8780 North 487 560 37,000  Level FlightAware
08:15PM 28.4990 -78.8570 North 485 558 37,000  Level FlightAware
08:15PM 28.5740 -78.8450 North 485 558 37,000  Level FlightAware
08:16PM 28.6500 -78.8330 North 485 558 37,000  Level FlightAware
08:17PM 28.7250 -78.8210 North 485 558 37,000  Level FlightAware
08:17PM 28.8010 -78.8090 North 485 558 37,000  Level FlightAware
08:18PM 28.8950 -78.7940 North 485 558 37,000  Level FlightAware
08:19PM 28.9710 -78.7810 North 485 558 37,000  Level FlightAware
08:20PM 29.0460 -78.7690 North 485 558 37,000  Level FlightAware
08:20PM 29.1220 -78.7570 North 485 558 37,000  Level FlightAware
08:21PM 29.1970 -78.7450 North 485 558 37,000  Level FlightAware
08:22PM 29.2920 -78.7300 North 485 558 37,000  Level FlightAware
08:22PM 29.3670 -78.7180 North 485 558 37,000  Level FlightAware
08:23PM 29.4430 -78.7050 North 485 558 37,000  Level FlightAware
08:24PM 29.5190 -78.6930 North 485 558 37,000  Level FlightAware
08:24PM 29.7206 -78.6625 North 447 514 37,000  Level Jacksonville Center
08:25PM 29.8450 -78.6403 North 452 520 37,000  Level Jacksonville Center
08:26PM 29.9778 -78.6200 North 457 526 37,000  Level Jacksonville Center
08:27PM 30.1086 -78.6022 North 474 545 37,000  Level Jacksonville Center
08:28PM 30.2353 -78.5822 North 474 545 37,000  Level Jacksonville Center
08:29PM 30.3619 -78.5594 North 465 535 37,000  Level Jacksonville Center
08:30PM 30.4947 -78.5392 North 459 528 37,000  Level Jacksonville Center
08:31PM 30.6214 -78.5164 North 466 536 37,000  Level Jacksonville Center
08:32PM 30.7542 -78.4958 North 458 527 37,000  Level Jacksonville Center
08:33PM 30.8850 -78.4753 North 477 549 37,000  Level Jacksonville Center
08:34PM 31.0136 -78.4522 North 466 536 37,000  Level Jacksonville Center
08:35PM 31.1319 -78.4297 North 466 536 37,000  Level Jacksonville Center
08:36PM 31.2586 -78.4089 North 466 536 37,000  Level Jacksonville Center
08:37PM 31.3892 -78.3858 North 465 535 37,000  Level Jacksonville Center
08:43PM 32.2190 -78.2470 North 484 557 37,000  Level FlightAware
08:44PM 32.2990 -78.2340 North 486 559 37,000  Level FlightAware
08:45PM 32.4050 -78.2160 North 487 560 37,000  Level FlightAware
08:45PM 32.4670 -78.2050 North 488 562 37,000  Level FlightAware
08:46PM 32.5810 -78.1850 North 489 563 37,000  Level FlightAware
08:47PM 32.6870 -78.1670 North 488 562 37,000  Level FlightAware
08:47PM 32.7580 -78.1550 North 482 555 37,000  Level FlightAware
08:48PM 32.8730 -78.1350 North 482 555 37,000  Level FlightAware
08:49PM 32.9580 -78.1200 North 480 552 37,000  Level FlightAware
08:50PM 33.0380 -78.1060 North 479 551 37,000  Level FlightAware
08:50PM 33.1490 -78.0870 North 476 548 37,000  Level FlightAware
08:51PM 33.2160 -78.0750 North 475 547 37,000  Level FlightAware
08:52PM 33.3550 -78.0510 North 476 548 37,000  Level FlightAware
08:53PM 33.4410 -78.0360 North 475 547 37,000  Level FlightAware
08:54PM 33.5720 -78.0130 North 475 547 37,000  Level FlightAware
08:54PM 33.6560 -77.9980 North 476 548 37,000  Level FlightAware
08:55PM 33.7490 -77.9820 North 479 551 37,000  Level FlightAware
08:56PM 33.8480 -77.9640 North 482 555 37,000  Level FlightAware
08:56PM 33.9320 -77.9500 North 483 556 37,000  Level FlightAware
08:57PM 34.0360 -77.9310 North 482 555 37,000 -60 Level FlightAware
08:58PM 34.1440 -77.9120 North 482 555 36,900 -360 Descending FlightAware
08:59PM 34.1260 -77.9150 188° South 482 555 36,500 -300 Descending FlightAware
08:59PM 34.2010 -77.9020 North 482 555 36,500  Level FlightAware
09:00PM 34.2760 -77.8900 North 482 555 36,500  Level FlightAware
09:01PM 34.3700 -77.8740 North 482 555 36,500  Level FlightAware
09:02PM 34.4450 -77.8610 North 482 555 36,500  Level FlightAware
09:02PM 34.5200 -77.8480 North 482 555 36,500  Level FlightAware
09:03PM 34.5950 -77.8350 North 482 555 36,500  Level FlightAware
09:04PM 34.6700 -77.8220 North 482 555 36,500  Level FlightAware
09:04PM 34.7640 -77.8060 North 482 555 36,500  Level FlightAware
09:05PM 34.8390 -77.7930 North 482 555 36,500  Level FlightAware
09:06PM 34.9140 -77.7810 North 482 555 36,500  Level FlightAware
09:06PM 34.9890 -77.7680 North 482 555 36,500  Level FlightAware
09:07PM 35.0640 -77.7550 North 482 555 36,500  Level FlightAware
09:08PM 35.1390 -77.7420 North 482 555 36,500 -1,920 Level FlightAware
09:11PM 35.7660 -77.7260 North 470 541 29,700 -2,040 Descending FlightAware
09:11PM 35.8680 -77.7150 North 471 542 29,200 -720 Descending FlightAware
09:12PM 35.9540 -77.7060 North 476 548 28,700 -840 Descending FlightAware
09:13PM 36.0390 -77.6960 North 457 526 28,100 -900 Descending FlightAware
09:13PM 36.1310 -77.6820 North 435 501 27,500 -780 Descending FlightAware
09:14PM 36.2100 -77.6640 10° North 454 522 27,000 -360 Descending FlightAware
09:15PM 36.3060 -77.6380 12° North 461 531 27,000  Level FlightAware
09:16PM 36.3910 -77.6170 11° North 461 531 27,000  Level FlightAware
09:16PM 36.4740 -77.5950 12° North 456 525 27,000  Level FlightAware
09:17PM 36.5570 -77.5730 12° North 428 493 27,000  Level FlightAware
09:18PM 36.6230 -77.5560 12° North 426 490 27,000 -240 Level FlightAware
09:19PM 36.7400 -77.5250 12° North 425 489 26,700 -180 Descending FlightAware
09:19PM 36.8050 -77.5080 12° North 425 489 26,700  Level FlightAware
09:20PM 36.8710 -77.4900 12° North 425 489 26,700  Level FlightAware
09:21PM 36.9520 -77.4690 12° North 425 489 26,700  Level FlightAware
09:21PM 37.0180 -77.4510 12° North 425 489 26,700  Level FlightAware
09:22PM 37.0830 -77.4340 12° North 425 489 26,700 -1,860 Level FlightAware
09:23PM 37.2920 -77.3770 12° North 401 461 22,900 -2,160 Descending FlightAware
09:24PM 37.3700 -77.3560 12° North 398 458 22,300 -660 Descending FlightAware
09:25PM 37.4490 -77.3350 12° North 385 443 22,000 -240 Descending FlightAware
09:26PM 37.5180 -77.3170 12° North 380 437 22,000  Level FlightAware
09:26PM 37.5970 -77.3010 North 381 438 22,000 -780 Level FlightAware
09:27PM 37.6620 -77.2870 10° North 380 437 20,900 -1,920 Descending FlightAware
09:28PM 37.7430 -77.2710 North 379 436 19,300 -2,100 Descending FlightAware
09:28PM 37.8130 -77.2560 10° North 374 430 18,000 -1,920 Descending FlightAware
09:29PM 37.8780 -77.2430 North 369 425 16,800 -1,920 Descending FlightAware
09:30PM 37.9560 -77.2270 North 364 419 15,300 -1,920 Descending FlightAware
09:30PM 38.0210 -77.2130 10° North 362 417 14,100 -1,800 Descending FlightAware
09:31PM 38.0960 -77.1970 10° North 356 410 12,800 -1,800 Descending FlightAware
09:32PM 38.1590 -77.1840 North 352 405 11,600 -1,800 Descending FlightAware
09:33PM 38.2240 -77.1710 North 347 399 10,400 -1,200 Descending FlightAware
09:33PM 38.2940 -77.1560 10° North 313 360 9,900 -540 Descending FlightAware
09:34PM 38.3280 -77.1520 North 295 339 9,800 -600 Descending FlightAware
09:34PM 38.3680 -77.1510 North 281 323 9,400 -720 Descending FlightAware
09:35PM 38.4060 -77.1500 North 279 321 9,100 -600 Descending FlightAware
09:35PM 38.4190 -77.1500 360° North 281 323 9,000 -600 Descending FlightAware
09:35PM 38.4590 -77.1490 North 283 326 8,700 -720 Descending FlightAware
09:36PM 38.4760 -77.1490 360° North 283 326 8,500 -780 Descending FlightAware
09:36PM 38.5100 -77.1490 360° North 278 320 8,200 -600 Descending FlightAware
09:37PM 38.5660 -77.1490 360° North 250 288 7,800 -720 Descending FlightAware
09:37PM 38.5940 -77.1490 360° North 247 284 7,400 -900 Descending FlightAware
09:38PM 38.6280 -77.1490 360° North 249 287 7,000 -900 Descending FlightAware
09:38PM 38.6540 -77.1420 12° North 248 285 6,600 -900 Descending FlightAware
09:39PM 38.6840 -77.1250 24° Northeast 246 283 6,200 -720 Descending FlightAware
09:39PM 38.7130 -77.1040 29° Northeast 246 283 5,900 -360 Descending FlightAware
09:40PM 38.7370 -77.0830 34° Northeast 237 273 5,900  Level FlightAware
09:40PM 38.7610 -77.0580 39° Northeast 234 269 5,900  Level FlightAware
09:40PM 38.7810 -77.0370 39° Northeast 236 272 5,900  Level FlightAware
09:41PM 38.8090 -77.0090 38° Northeast 236 272 5,900 60 Level FlightAware
09:41PM 38.8330 -76.9830 40° Northeast 224 258 6,000  Climbing FlightAware
09:42PM 38.8540 -76.9630 37° Northeast 216 249 5,900 -180 Descending FlightAware
09:42PM 38.8660 -76.9580 18° North 216 249 5,900  Level FlightAware
09:43PM 38.8920 -76.9580 360° North 216 249 5,900 -120 Level FlightAware
09:43PM 38.9330 -76.9720 345° North 209 241 5,800 -600 Descending FlightAware
09:44PM 38.9550 -76.9960 320° Northwest 210 242 5,200 -1,140 Descending FlightAware
09:44PM 38.9740 -77.0160 321° Northwest 206 237 4,800 -900 Descending FlightAware
09:45PM 38.9960 -77.0390 321° Northwest 204 235 4,400 -660 Descending FlightAware
09:45PM 39.0110 -77.0540 322° Northwest 203 234 4,200 -480 Descending FlightAware
09:45PM 39.0220 -77.0660 320° Northwest 204 235 4,100 -480 Descending FlightAware
09:46PM 39.0380 -77.0990 302° West 195 224 3,800 -900 Descending FlightAware
09:46PM 39.0350 -77.1230 261° West 199 229 3,300 -960 Descending FlightAware
09:47PM 39.0280 -77.1560 255° West 188 216 3,000 -420 Descending FlightAware
09:47PM 39.0200 -77.1830 249° West 172 198 2,900 -180 Descending FlightAware
09:47PM 39.0120 -77.1910 218° Southwest 174 200 2,900  Level FlightAware
09:48PM 38.9930 -77.1870 171° South 174 200 2,900  Level FlightAware
09:48PM 38.9670 -77.1750 160° South 175 201 2,900 -360 Level FlightAware
09:49PM 38.9520 -77.1560 135° Southeast 176 203 2,600 -780 Descending FlightAware
09:49PM 38.9360 -77.1340 133° Southeast 176 203 2,200 -840 Descending FlightAware
09:50PM 38.9310 -77.1280 137° Southeast 175 201 2,000 -1,080 Descending FlightAware
09:50PM 38.9110 -77.1010 134° Southeast 149 171 1,500 -1,200 Descending FlightAware
09:50PM 38.9070 -77.0940 126° Southeast 147 169 1,300 -840 Descending FlightAware
09:51PM 38.9040 -77.0820 108° East 144 166 1,100 -600 Descending FlightAware
09:51PM 38.8940 -77.0620 123° Southeast 140 161 800 -480 Descending FlightAware
09:52PM 38.8780 -77.0320 124° Southeast 140 161 500 -420 Descending FlightAware